sensor_id;sensor_type;location;lat;lon;timestamp;pressure;altitude;pressure_sealevel;temperature;humidity
13968;BME280;39536;52.198;9.920;2022-11-20T00:00:47;100444.91;;;-2.24;100.00
13968;BME280;39536;52.198;9.920;2022-11-20T00:03:13;100441.44;;;-2.28;100.00
13968;BME280;39536;52.198;9.920;2022-11-20T00:05:40;100447.44;;;-2.26;100.00
13968;BME280;39536;52.198;9.920;2022-11-20T00:08:07;100443.91;;;-2.33;100.00
13968;BME280;39536;52.198;9.920;2022-11-20T00:10:35;100446.44;;;-2.34;100.00
13968;BME280;39536;52.198;9.920;2022-11-20T00:13:02;100447.13;;;-2.43;100.00
13968;BME280;39536;52.198;9.920;2022-11-20T00:15:30;100443.75;;;-2.40;100.00
13968;BME280;39536;52.198;9.920;2022-11-20T00:17:56;100441.28;;;-2.37;100.00
13968;BME280;39536;52.198;9.920;2022-11-20T00:20:23;100444.72;;;-2.37;100.00
13968;BME280;39536;52.198;9.920;2022-11-20T00:22:50;100441.28;;;-2.37;100.00
13968;BME280;39536;52.198;9.920;2022-11-20T00:25:16;100442.09;;;-2.38;100.00
13968;BME280;39536;52.198;9.920;2022-11-20T00:27:43;100443.69;;;-2.45;100.00
13968;BME280;39536;52.198;9.920;2022-11-20T00:30:10;100441.94;;;-2.47;100.00
13968;BME280;39536;52.198;9.920;2022-11-20T00:32:38;100441.03;;;-2.49;100.00
13968;BME280;39536;52.198;9.920;2022-11-20T00:35:05;100439.22;;;-2.57;100.00
13968;BME280;39536;52.198;9.920;2022-11-20T00:37:31;100440.88;;;-2.59;100.00
13968;BME280;39536;52.198;9.920;2022-11-20T00:39:58;100437.56;;;-2.54;100.00
13968;BME280;39536;52.198;9.920;2022-11-20T00:42:24;100441.09;;;-2.48;100.00
13968;BME280;39536;52.198;9.920;2022-11-20T00:44:51;100434.28;;;-2.49;100.00
13968;BME280;39536;52.198;9.920;2022-11-20T00:47:17;100440.78;;;-2.65;100.00
13968;BME280;39536;52.198;9.920;2022-11-20T00:49:45;100443.84;;;-2.81;100.00
13968;BME280;39536;52.198;9.920;2022-11-20T00:52:12;100434.53;;;-2.79;100.00
13968;BME280;39536;52.198;9.920;2022-11-20T00:54:38;100432.88;;;-2.77;100.00
13968;BME280;39536;52.198;9.920;2022-11-20T00:57:05;100432.91;;;-2.75;100.00
13968;BME280;39536;52.198;9.920;2022-11-20T00:59:31;100430.41;;;-2.74;100.00
13968;BME280;39536;52.198;9.920;2022-11-20T01:01:58;100430.41;;;-2.72;100.00
13968;BME280;39536;52.198;9.920;2022-11-20T01:04:24;100426.22;;;-2.70;100.00
13968;BME280;39536;52.198;9.920;2022-11-20T01:06:52;100430.53;;;-2.66;100.00
13968;BME280;39536;52.198;9.920;2022-11-20T01:09:18;100437.41;;;-2.62;100.00
13968;BME280;39536;52.198;9.920;2022-11-20T01:11:45;100432.31;;;-2.62;100.00
13968;BME280;39536;52.198;9.920;2022-11-20T01:14:13;100429.81;;;-2.59;100.00
13968;BME280;39536;52.198;9.920;2022-11-20T01:16:42;100430.66;;;-2.60;100.00
13968;BME280;39536;52.198;9.920;2022-11-20T01:19:10;100428.97;;;-2.60;100.00
13968;BME280;39536;52.198;9.920;2022-11-20T01:21:39;100424.72;;;-2.59;100.00
13968;BME280;39536;52.198;9.920;2022-11-20T01:24:10;100420.47;;;-2.60;100.00
13968;BME280;39536;52.198;9.920;2022-11-20T01:26:38;100419.56;;;-2.62;100.00
13968;BME280;39536;52.198;9.920;2022-11-20T01:29:06;100417.91;;;-2.62;100.00
13968;BME280;39536;52.198;9.920;2022-11-20T01:31:34;100426.34;;;-2.63;100.00
13968;BME280;39536;52.198;9.920;2022-11-20T01:34:03;100421.25;;;-2.64;100.00
13968;BME280;39536;52.198;9.920;2022-11-20T01:36:31;100413.50;;;-2.69;100.00
13968;BME280;39536;52.198;9.920;2022-11-20T01:39:00;100401.53;;;-2.73;100.00
13968;BME280;39536;52.198;9.920;2022-11-20T01:41:31;100397.16;;;-2.79;100.00
13968;BME280;39536;52.198;9.920;2022-11-20T01:44:17;100400.59;;;-2.76;100.00
13968;BME280;39536;52.198;9.920;2022-11-20T01:46:52;100398.91;;;-2.76;100.00
13968;BME280;39536;52.198;9.920;2022-11-20T01:49:24;100392.91;;;-2.78;100.00
13968;BME280;39536;52.198;9.920;2022-11-20T01:51:55;100391.28;;;-2.76;100.00
13968;BME280;39536;52.198;9.920;2022-11-20T01:54:26;100384.53;;;-2.74;100.00
13968;BME280;39536;52.198;9.920;2022-11-20T01:56:56;100378.53;;;-2.76;100.00
13968;BME280;39536;52.198;9.920;2022-11-20T01:59:25;100371.69;;;-2.79;100.00
13968;BME280;39536;52.198;9.920;2022-11-20T02:01:53;100380.19;;;-2.78;100.00
13968;BME280;39536;52.198;9.920;2022-11-20T02:04:20;100373.25;;;-2.85;100.00
13968;BME280;39536;52.198;9.920;2022-11-20T02:06:50;100377.56;;;-2.81;100.00
13968;BME280;39536;52.198;9.920;2022-11-20T02:09:18;100374.16;;;-2.82;100.00
13968;BME280;39536;52.198;9.920;2022-11-20T02:11:45;100366.44;;;-2.86;100.00
13968;BME280;39536;52.198;9.920;2022-11-20T02:14:14;100377.44;;;-2.87;100.00
13968;BME280;39536;52.198;9.920;2022-11-20T02:16:44;100379.13;;;-2.89;100.00
13968;BME280;39536;52.198;9.920;2022-11-20T02:19:17;100380.91;;;-2.85;100.00
13968;BME280;39536;52.198;9.920;2022-11-20T02:21:50;100380.91;;;-2.85;100.00
13968;BME280;39536;52.198;9.920;2022-11-20T02:24:22;100378.31;;;-2.87;100.00
13968;BME280;39536;52.198;9.920;2022-11-20T02:26:51;100382.50;;;-2.90;100.00
13968;BME280;39536;52.198;9.920;2022-11-20T02:29:23;100376.41;;;-2.98;100.00
13968;BME280;39536;52.198;9.920;2022-11-20T02:31:52;100372.09;;;-3.01;100.00
13968;BME280;39536;52.198;9.920;2022-11-20T02:34:20;100370.53;;;-2.94;100.00
13968;BME280;39536;52.198;9.920;2022-11-20T02:36:48;100373.16;;;-2.90;100.00
13968;BME280;39536;52.198;9.920;2022-11-20T02:39:16;100363.78;;;-2.91;100.00
13968;BME280;39536;52.198;9.920;2022-11-20T02:41:44;100367.06;;;-2.96;100.00
13968;BME280;39536;52.198;9.920;2022-11-20T02:44:10;100356.81;;;-3.01;100.00
13968;BME280;39536;52.198;9.920;2022-11-20T02:46:37;100354.22;;;-3.03;100.00
13968;BME280;39536;52.198;9.920;2022-11-20T02:49:04;100343.25;;;-3.00;100.00
13968;BME280;39536;52.198;9.920;2022-11-20T02:51:31;100349.13;;;-3.03;100.00
13968;BME280;39536;52.198;9.920;2022-11-20T02:53:58;100346.63;;;-2.99;100.00
13968;BME280;39536;52.198;9.920;2022-11-20T02:56:25;100345.78;;;-3.02;100.00
13968;BME280;39536;52.198;9.920;2022-11-20T02:58:53;100341.53;;;-3.01;100.00
13968;BME280;39536;52.198;9.920;2022-11-20T03:01:19;100344.06;;;-3.01;100.00
13968;BME280;39536;52.198;9.920;2022-11-20T03:03:46;100349.13;;;-3.03;100.00
13968;BME280;39536;52.198;9.920;2022-11-20T03:06:14;100348.25;;;-3.05;100.00
13968;BME280;39536;52.198;9.920;2022-11-20T03:08:40;100348.13;;;-3.11;100.00
13968;BME280;39536;52.198;9.920;2022-11-20T03:11:07;100348.13;;;-3.11;100.00
13968;BME280;39536;52.198;9.920;2022-11-20T03:13:34;100353.34;;;-3.05;100.00
13968;BME280;39536;52.198;9.920;2022-11-20T03:16:10;100348.31;;;-3.02;100.00
13968;BME280;39536;52.198;9.920;2022-11-20T03:18:37;100350.94;;;-2.97;100.00
13968;BME280;39536;52.198;9.920;2022-11-20T03:21:04;100344.91;;;-3.02;100.00
13968;BME280;39536;52.198;9.920;2022-11-20T03:23:32;100341.34;;;-3.10;100.00
13968;BME280;39536;52.198;9.920;2022-11-20T03:26:13;100346.13;;;-3.27;100.00
13968;BME280;39536;52.198;9.920;2022-11-20T03:28:40;100341.78;;;-3.31;100.00
13968;BME280;39536;52.198;9.920;2022-11-20T03:31:10;100331.66;;;-3.28;100.00
13968;BME280;39536;52.198;9.920;2022-11-20T03:33:37;100328.31;;;-3.24;100.00
13968;BME280;39536;52.198;9.920;2022-11-20T03:36:06;100325.91;;;-3.18;100.00
13968;BME280;39536;52.198;9.920;2022-11-20T03:38:33;100338.63;;;-3.18;100.00
13968;BME280;39536;52.198;9.920;2022-11-20T03:41:00;100329.28;;;-3.19;100.00
13968;BME280;39536;52.198;9.920;2022-11-20T03:43:27;100327.69;;;-3.14;100.00
13968;BME280;39536;52.198;9.920;2022-11-20T03:45:54;100328.63;;;-3.09;100.00
13968;BME280;39536;52.198;9.920;2022-11-20T03:48:22;100316.84;;;-3.05;100.00
13968;BME280;39536;52.198;9.920;2022-11-20T03:50:49;100322.72;;;-3.08;100.00
13968;BME280;39536;52.198;9.920;2022-11-20T03:53:16;100320.19;;;-3.06;100.00
13968;BME280;39536;52.198;9.920;2022-11-20T03:55:42;100323.56;;;-3.07;100.00
13968;BME280;39536;52.198;9.920;2022-11-20T03:58:09;100320.06;;;-3.14;100.00
13968;BME280;39536;52.198;9.920;2022-11-20T04:00:36;100324.13;;;-3.22;100.00
13968;BME280;39536;52.198;9.920;2022-11-20T04:03:03;100314.78;;;-3.23;100.00
13968;BME280;39536;52.198;9.920;2022-11-20T04:05:32;100321.72;;;-3.16;100.00
13968;BME280;39536;52.198;9.920;2022-11-20T04:07:59;100320.97;;;-3.10;100.00
13968;BME280;39536;52.198;9.920;2022-11-20T04:10:25;100312.41;;;-3.14;100.00
13968;BME280;39536;52.198;9.920;2022-11-20T04:12:52;100309.88;;;-3.12;100.00
13968;BME280;39536;52.198;9.920;2022-11-20T04:15:18;100309.03;;;-3.13;100.00
13968;BME280;39536;52.198;9.920;2022-11-20T04:17:45;100303.03;;;-3.15;100.00
13968;BME280;39536;52.198;9.920;2022-11-20T04:20:12;100303.03;;;-3.15;100.00
13968;BME280;39536;52.198;9.920;2022-11-20T04:22:39;100299.50;;;-3.23;100.00
13968;BME280;39536;52.198;9.920;2022-11-20T04:25:09;100299.50;;;-3.23;100.00
13968;BME280;39536;52.198;9.920;2022-11-20T04:27:36;100304.00;;;-3.10;100.00
13968;BME280;39536;52.198;9.920;2022-11-20T04:30:03;100296.28;;;-3.14;100.00
13968;BME280;39536;52.198;9.920;2022-11-20T04:32:29;100298.84;;;-3.13;100.00
13968;BME280;39536;52.198;9.920;2022-11-20T04:34:56;100293.91;;;-3.04;100.00
13968;BME280;39536;52.198;9.920;2022-11-20T04:37:22;100297.41;;;-2.98;100.00
13968;BME280;39536;52.198;9.920;2022-11-20T04:39:50;100294.94;;;-2.94;100.00
13968;BME280;39536;52.198;9.920;2022-11-20T04:42:17;100302.63;;;-2.92;100.00
13968;BME280;39536;52.198;9.920;2022-11-20T04:44:55;100296.63;;;-2.96;100.00
13968;BME280;39536;52.198;9.920;2022-11-20T04:47:22;100297.53;;;-2.92;100.00
13968;BME280;39536;52.198;9.920;2022-11-20T04:49:50;100291.59;;;-2.91;100.00
13968;BME280;39536;52.198;9.920;2022-11-20T04:52:53;100297.53;;;-2.91;100.00
13968;BME280;39536;52.198;9.920;2022-11-20T04:55:21;100295.72;;;-2.98;100.00
13968;BME280;39536;52.198;9.920;2022-11-20T04:57:49;100298.34;;;-2.93;100.00
13968;BME280;39536;52.198;9.920;2022-11-20T05:00:16;100301.72;;;-2.94;100.00
13968;BME280;39536;52.198;9.920;2022-11-20T05:02:48;100299.97;;;-2.98;100.00
13968;BME280;39536;52.198;9.920;2022-11-20T05:06:06;100294.81;;;-3.00;100.00
13968;BME280;39536;52.198;9.920;2022-11-20T05:09:06;100295.84;;;-2.92;100.00
13968;BME280;39536;52.198;9.920;2022-11-20T05:11:34;100295.75;;;-2.96;100.00
13968;BME280;39536;52.198;9.920;2022-11-20T05:17:16;100289.09;;;-2.88;100.00
13968;BME280;39536;52.198;9.920;2022-11-20T05:19:45;100288.25;;;-2.87;100.00
13968;BME280;39536;52.198;9.920;2022-11-20T05:23:03;100295.22;;;-2.80;100.00
13968;BME280;39536;52.198;9.920;2022-11-20T05:25:35;100284.91;;;-2.85;100.00
13968;BME280;39536;52.198;9.920;2022-11-20T05:28:42;100275.63;;;-2.81;100.00
13968;BME280;39536;52.198;9.920;2022-11-20T05:31:10;100276.53;;;-2.79;100.00
13968;BME280;39536;52.198;9.920;2022-11-20T05:33:39;100275.63;;;-2.81;100.00
13968;BME280;39536;52.198;9.920;2022-11-20T05:36:07;100265.38;;;-2.84;100.00
13968;BME280;39536;52.198;9.920;2022-11-20T05:38:34;100260.34;;;-2.81;100.00
13968;BME280;39536;52.198;9.920;2022-11-20T05:41:05;100269.69;;;-2.82;100.00
13968;BME280;39536;52.198;9.920;2022-11-20T05:43:32;100278.16;;;-2.83;100.00
13968;BME280;39536;52.198;9.920;2022-11-20T05:46:01;100272.91;;;-2.90;100.00
13968;BME280;39536;52.198;9.920;2022-11-20T05:48:28;100272.81;;;-2.96;100.00
13968;BME280;39536;52.198;9.920;2022-11-20T05:50:56;100280.44;;;-2.96;100.00
13968;BME280;39536;52.198;9.920;2022-11-20T05:53:23;100275.47;;;-2.90;100.00
13968;BME280;39536;52.198;9.920;2022-11-20T05:55:56;100275.47;;;-2.90;100.00
13968;BME280;39536;52.198;9.920;2022-11-20T05:58:23;100279.75;;;-2.88;100.00
13968;BME280;39536;52.198;9.920;2022-11-20T06:00:49;100288.47;;;-2.76;100.00
13968;BME280;39536;52.198;9.920;2022-11-20T06:03:17;100276.59;;;-2.74;100.00
13968;BME280;39536;52.198;9.920;2022-11-20T06:05:44;100281.78;;;-2.68;100.00
13968;BME280;39536;52.198;9.920;2022-11-20T06:08:10;100278.38;;;-2.70;100.00
13968;BME280;39536;52.198;9.920;2022-11-20T06:10:37;100274.19;;;-2.65;100.00
13968;BME280;39536;52.198;9.920;2022-11-20T06:13:03;100284.31;;;-2.70;100.00
13968;BME280;39536;52.198;9.920;2022-11-20T06:15:30;100278.13;;;-2.84;100.00
13968;BME280;39536;52.198;9.920;2022-11-20T06:17:56;100276.44;;;-2.84;100.00
13968;BME280;39536;52.198;9.920;2022-11-20T06:20:25;100281.66;;;-2.76;100.00
13968;BME280;39536;52.198;9.920;2022-11-20T06:22:52;100287.56;;;-2.80;100.00
13968;BME280;39536;52.198;9.920;2022-11-20T06:25:18;100276.41;;;-2.85;100.00
13968;BME280;39536;52.198;9.920;2022-11-20T06:27:45;100284.91;;;-2.86;100.00
13968;BME280;39536;52.198;9.920;2022-11-20T06:30:12;100280.75;;;-2.80;100.00
13968;BME280;39536;52.198;9.920;2022-11-20T06:32:39;100274.03;;;-2.76;100.00
13968;BME280;39536;52.198;9.920;2022-11-20T06:35:06;100277.41;;;-2.77;100.00
13968;BME280;39536;52.198;9.920;2022-11-20T06:37:34;100269.66;;;-2.83;100.00
13968;BME280;39536;52.198;9.920;2022-11-20T06:40:00;100272.38;;;-2.74;100.00
13968;BME280;39536;52.198;9.920;2022-11-20T06:42:27;100267.28;;;-2.72;100.00
13968;BME280;39536;52.198;9.920;2022-11-20T06:44:54;100267.31;;;-2.71;100.00
13968;BME280;39536;52.198;9.920;2022-11-20T06:47:20;100260.59;;;-2.67;100.00
13968;BME280;39536;52.198;9.920;2022-11-20T06:49:47;100267.03;;;-2.88;100.00
13968;BME280;39536;52.198;9.920;2022-11-20T06:52:13;100257.72;;;-2.86;100.00
13968;BME280;39536;52.198;9.920;2022-11-20T06:54:41;100256.19;;;-2.74;100.00
13968;BME280;39536;52.198;9.920;2022-11-20T06:57:08;100257.19;;;-2.68;100.00
13968;BME280;39536;52.198;9.920;2022-11-20T06:59:34;100257.13;;;-2.69;100.00
13968;BME280;39536;52.198;9.920;2022-11-20T07:02:01;100256.28;;;-2.68;100.00
13968;BME280;39536;52.198;9.920;2022-11-20T07:04:28;100254.69;;;-2.63;100.00
13968;BME280;39536;52.198;9.920;2022-11-20T07:06:54;100248.03;;;-2.55;100.00
13968;BME280;39536;52.198;9.920;2022-11-20T07:09:21;100243.78;;;-2.53;100.00
13968;BME280;39536;52.198;9.920;2022-11-20T07:11:48;100243.94;;;-2.45;100.00
13968;BME280;39536;52.198;9.920;2022-11-20T07:14:15;100238.03;;;-2.41;100.00
13968;BME280;39536;52.198;9.920;2022-11-20T07:16:42;100233.06;;;-2.32;100.00
13968;BME280;39536;52.198;9.920;2022-11-20T07:19:08;100240.78;;;-2.29;100.00
13968;BME280;39536;52.198;9.920;2022-11-20T07:21:35;100247.56;;;-2.28;100.00
13968;BME280;39536;52.198;9.920;2022-11-20T07:24:01;100255.31;;;-2.22;100.00
13968;BME280;39536;52.198;9.920;2022-11-20T07:26:28;100253.72;;;-2.15;100.00
13968;BME280;39536;52.198;9.920;2022-11-20T07:28:56;100258.97;;;-2.04;100.00
13968;BME280;39536;52.198;9.920;2022-11-20T07:31:22;100251.44;;;-1.95;100.00
13968;BME280;39536;52.198;9.920;2022-11-20T07:33:49;100262.59;;;-1.87;100.00
13968;BME280;39536;52.198;9.920;2022-11-20T07:36:15;100250.59;;;-1.94;100.00
13968;BME280;39536;52.198;9.920;2022-11-20T07:38:42;100254.00;;;-1.95;100.00
13968;BME280;39536;52.198;9.920;2022-11-20T07:41:09;100254.09;;;-1.88;100.00
13968;BME280;39536;52.198;9.920;2022-11-20T07:43:35;100257.41;;;-1.96;100.00
13968;BME280;39536;52.198;9.920;2022-11-20T07:46:03;100259.78;;;-2.08;100.00
13968;BME280;39536;52.198;9.920;2022-11-20T07:48:30;100256.47;;;-2.01;100.00
13968;BME280;39536;52.198;9.920;2022-11-20T07:50:56;100256.69;;;-1.86;100.00
13968;BME280;39536;52.198;9.920;2022-11-20T07:53:23;100258.47;;;-1.79;100.00
13968;BME280;39536;52.198;9.920;2022-11-20T07:55:50;100261.06;;;-1.76;100.00
13968;BME280;39536;52.198;9.920;2022-11-20T07:58:18;100261.97;;;-1.71;100.00
13968;BME280;39536;52.198;9.920;2022-11-20T08:00:46;100266.31;;;-1.62;100.00
13968;BME280;39536;52.198;9.920;2022-11-20T08:03:14;100264.69;;;-1.57;100.00
13968;BME280;39536;52.198;9.920;2022-11-20T08:05:40;100270.69;;;-1.53;100.00
13968;BME280;39536;52.198;9.920;2022-11-20T08:08:07;100262.22;;;-1.52;100.00
13968;BME280;39536;52.198;9.920;2022-11-20T08:10:34;100250.28;;;-1.50;100.00
13968;BME280;39536;52.198;9.920;2022-11-20T08:13:00;100258.81;;;-1.50;100.00
13968;BME280;39536;52.198;9.920;2022-11-20T08:15:48;100254.66;;;-1.43;100.00
13968;BME280;39536;52.198;9.920;2022-11-20T08:21:28;100263.28;;;-1.33;100.00
13968;BME280;39536;52.198;9.920;2022-11-20T08:23:54;100264.13;;;-1.33;100.00
13968;BME280;39536;52.198;9.920;2022-11-20T08:26:21;100258.16;;;-1.32;100.00
13968;BME280;39536;52.198;9.920;2022-11-20T08:28:48;100265.88;;;-1.30;100.00
13968;BME280;39536;52.198;9.920;2022-11-20T08:31:15;100260.69;;;-1.35;100.00
13968;BME280;39536;52.198;9.920;2022-11-20T08:33:41;100259.00;;;-1.34;100.00
13968;BME280;39536;52.198;9.920;2022-11-20T08:36:08;100269.13;;;-1.42;100.00
13968;BME280;39536;52.198;9.920;2022-11-20T08:38:36;100268.03;;;-1.63;100.00
13968;BME280;39536;52.198;9.920;2022-11-20T08:41:04;100270.63;;;-1.59;100.00
13968;BME280;39536;52.198;9.920;2022-11-20T08:43:48;100268.13;;;-1.55;100.00
13968;BME280;39536;52.198;9.920;2022-11-20T08:46:15;100259.69;;;-1.49;100.00
13968;BME280;39536;52.198;9.920;2022-11-20T08:48:42;100263.19;;;-1.43;100.00
13968;BME280;39536;52.198;9.920;2022-11-20T08:51:09;100267.47;;;-1.40;100.00
13968;BME280;39536;52.198;9.920;2022-11-20T08:53:37;100262.44;;;-1.34;100.00
13968;BME280;39536;52.198;9.920;2022-11-20T08:56:05;100256.53;;;-1.27;100.00
13968;BME280;39536;52.198;9.920;2022-11-20T08:58:31;100261.72;;;-1.19;100.00
13968;BME280;39536;52.198;9.920;2022-11-20T09:00:58;100264.38;;;-1.11;100.00
13968;BME280;39536;52.198;9.920;2022-11-20T09:03:25;100270.38;;;-1.05;100.00
13968;BME280;39536;52.198;9.920;2022-11-20T09:05:57;100273.88;;;-1.00;100.00
13968;BME280;39536;52.198;9.920;2022-11-20T09:08:24;100267.88;;;-1.02;100.00
13968;BME280;39536;52.198;9.920;2022-11-20T09:10:53;100266.22;;;-0.95;100.00
13968;BME280;39536;52.198;9.920;2022-11-20T09:13:20;100256.06;;;-0.89;100.00
13968;BME280;39536;52.198;9.920;2022-11-20T09:15:46;100256.13;;;-0.83;100.00
13968;BME280;39536;52.198;9.920;2022-11-20T09:18:13;100257.91;;;-0.73;100.00
13968;BME280;39536;52.198;9.920;2022-11-20T09:20:40;100257.94;;;-0.70;100.00
13968;BME280;39536;52.198;9.920;2022-11-20T09:23:06;100250.31;;;-0.65;100.00
13968;BME280;39536;52.198;9.920;2022-11-20T09:25:33;100236.66;;;-0.68;100.00
13968;BME280;39536;52.198;9.920;2022-11-20T09:28:01;100235.78;;;-0.71;100.00
13968;BME280;39536;52.198;9.920;2022-11-20T09:30:28;100222.13;;;-0.71;100.00
13968;BME280;39536;52.198;9.920;2022-11-20T09:32:56;100225.53;;;-0.71;100.00
13968;BME280;39536;52.198;9.920;2022-11-20T09:35:22;100227.13;;;-0.86;100.00
13968;BME280;39536;52.198;9.920;2022-11-20T09:37:49;100232.28;;;-0.79;100.00
13968;BME280;39536;52.198;9.920;2022-11-20T09:40:19;100246.78;;;-0.76;100.00
13968;BME280;39536;52.198;9.920;2022-11-20T09:42:52;100236.59;;;-0.75;100.00
13968;BME280;39536;52.198;9.920;2022-11-20T09:45:28;100236.66;;;-0.65;100.00
13968;BME280;39536;52.198;9.920;2022-11-20T09:48:05;100251.09;;;-0.69;100.00
13968;BME280;39536;52.198;9.920;2022-11-20T09:50:38;100240.94;;;-0.64;100.00
13968;BME280;39536;52.198;9.920;2022-11-20T09:53:12;100233.28;;;-0.61;100.00
13968;BME280;39536;52.198;9.920;2022-11-20T09:55:40;100219.72;;;-0.51;100.00
13968;BME280;39536;52.198;9.920;2022-11-20T09:58:13;100212.06;;;-0.48;100.00
13968;BME280;39536;52.198;9.920;2022-11-20T10:00:43;100208.69;;;-0.38;100.00
13968;BME280;39536;52.198;9.920;2022-11-20T10:03:13;100207.84;;;-0.38;100.00
13968;BME280;39536;52.198;9.920;2022-11-20T10:05:43;100206.16;;;-0.38;100.00
13968;BME280;39536;52.198;9.920;2022-11-20T10:08:16;100208.81;;;-0.19;100.00
13968;BME280;39536;52.198;9.920;2022-11-20T10:10:46;100208.91;;;-0.01;100.00
13968;BME280;39536;52.198;9.920;2022-11-20T10:13:23;100220.16;;;0.33;100.00
13968;BME280;39536;52.198;9.920;2022-11-20T10:16:03;100224.53;;;0.60;100.00
13968;BME280;39536;52.198;9.920;2022-11-20T10:18:47;100233.13;;;0.87;100.00
13968;BME280;39536;52.198;9.920;2022-11-20T10:21:23;100240.91;;;1.22;100.00
13968;BME280;39536;52.198;9.920;2022-11-20T10:24:02;100245.16;;;1.49;100.00
13968;BME280;39536;52.198;9.920;2022-11-20T10:26:43;100245.97;;;1.85;100.00
13968;BME280;39536;52.198;9.920;2022-11-20T10:29:15;100237.41;;;1.80;100.00
13968;BME280;39536;52.198;9.920;2022-11-20T10:31:46;100238.28;;;1.88;100.00
13968;BME280;39536;52.198;9.920;2022-11-20T10:34:20;100228.88;;;1.90;100.00
13968;BME280;39536;52.198;9.920;2022-11-20T10:36:52;100234.03;;;1.43;100.00
13968;BME280;39536;52.198;9.920;2022-11-20T10:39:26;100223.78;;;1.07;100.00
13968;BME280;39536;52.198;9.920;2022-11-20T10:41:56;100226.28;;;0.75;100.00
13968;BME280;39536;52.198;9.920;2022-11-20T10:44:26;100222.88;;;0.76;100.00
13968;BME280;39536;52.198;9.920;2022-11-20T10:47:14;100227.97;;;0.56;100.00
13968;BME280;39536;52.198;9.920;2022-11-20T10:49:42;100223.72;;;0.72;100.00
13968;BME280;39536;52.198;9.920;2022-11-20T10:52:13;100228.81;;;0.61;100.00
13968;BME280;39536;52.198;9.920;2022-11-20T10:54:50;100221.06;;;0.46;100.00
13968;BME280;39536;52.198;9.920;2022-11-20T10:57:29;100227.97;;;0.56;100.00
13968;BME280;39536;52.198;9.920;2022-11-20T11:00:05;100216.88;;;0.71;100.00
13968;BME280;39536;52.198;9.920;2022-11-20T11:02:37;100219.41;;;0.65;100.00
13968;BME280;39536;52.198;9.920;2022-11-20T11:05:17;100209.06;;;0.33;100.00
13968;BME280;39536;52.198;9.920;2022-11-20T11:07:48;100206.47;;;0.19;100.00
13968;BME280;39536;52.198;9.920;2022-11-20T11:10:18;100202.22;;;0.22;100.00
13968;BME280;39536;52.198;9.920;2022-11-20T11:12:46;100191.13;;;0.25;100.00
13968;BME280;39536;52.198;9.920;2022-11-20T11:15:24;100182.59;;;0.29;100.00
13968;BME280;39536;52.198;9.920;2022-11-20T11:17:53;100189.44;;;0.33;100.00
13968;BME280;39536;52.198;9.920;2022-11-20T11:20:21;100184.34;;;0.41;100.00
13968;BME280;39536;52.198;9.920;2022-11-20T11:22:50;100179.25;;;0.47;100.00
13968;BME280;39536;52.198;9.920;2022-11-20T11:25:24;100186.09;;;0.57;100.00
13968;BME280;39536;52.198;9.920;2022-11-20T11:27:52;100184.41;;;0.72;100.00
13968;BME280;39536;52.198;9.920;2022-11-20T11:30:20;100175.88;;;0.77;100.00
13968;BME280;39536;52.198;9.920;2022-11-20T11:32:47;100171.59;;;0.73;100.00
13968;BME280;39536;52.198;9.920;2022-11-20T11:35:24;100169.88;;;0.67;100.00
13968;BME280;39536;52.198;9.920;2022-11-20T11:37:52;100168.16;;;0.71;100.00
13968;BME280;39536;52.198;9.920;2022-11-20T11:40:22;100164.75;;;0.67;100.00
13968;BME280;39536;52.198;9.920;2022-11-20T11:42:54;100162.19;;;0.67;100.00
13968;BME280;39536;52.198;9.920;2022-11-20T11:45:23;100169.03;;;0.87;100.00
13968;BME280;39536;52.198;9.920;2022-11-20T11:47:50;100164.78;;;0.83;100.00
13968;BME280;39536;52.198;9.920;2022-11-20T11:50:20;100164.78;;;0.83;100.00
13968;BME280;39536;52.198;9.920;2022-11-20T11:52:56;100162.19;;;0.71;100.00
13968;BME280;39536;52.198;9.920;2022-11-20T11:55:31;100162.19;;;0.74;100.00
13968;BME280;39536;52.198;9.920;2022-11-20T11:58:16;100159.63;;;0.66;100.00
13968;BME280;39536;52.198;9.920;2022-11-20T12:00:50;100158.78;;;0.59;100.00
13968;BME280;39536;52.198;9.920;2022-11-20T12:03:20;100156.22;;;0.56;100.00
13968;BME280;39536;52.198;9.920;2022-11-20T12:05:51;100150.22;;;0.63;100.00
13968;BME280;39536;52.198;9.920;2022-11-20T12:08:26;100151.09;;;0.84;100.00
13968;BME280;39536;52.198;9.920;2022-11-20T12:10:56;100147.69;;;0.97;100.00
13968;BME280;39536;52.198;9.920;2022-11-20T12:13:36;100140.84;;;1.08;100.00
13968;BME280;39536;52.198;9.920;2022-11-20T12:16:10;100141.69;;;1.06;100.00
13968;BME280;39536;52.198;9.920;2022-11-20T12:18:39;100147.69;;;1.09;100.00
13968;BME280;39536;52.198;9.920;2022-11-20T12:21:13;100148.53;;;1.02;100.00
13968;BME280;39536;52.198;9.920;2022-11-20T12:23:53;100146.84;;;1.13;100.00
13968;BME280;39536;52.198;9.920;2022-11-20T12:26:35;100147.69;;;1.08;100.00
13968;BME280;39536;52.198;9.920;2022-11-20T12:29:09;100151.94;;;1.21;100.00
13968;BME280;39536;52.198;9.920;2022-11-20T12:31:52;100151.94;;;1.21;100.00
13968;BME280;39536;52.198;9.920;2022-11-20T12:34:43;100150.22;;;1.32;100.00
13968;BME280;39536;52.198;9.920;2022-11-20T12:37:21;100128.81;;;1.53;100.00
13968;BME280;39536;52.198;9.920;2022-11-20T12:39:55;100121.84;;;1.89;100.00
13968;BME280;39536;52.198;9.920;2022-11-20T12:42:33;100129.53;;;1.92;100.00
13968;BME280;39536;52.198;9.920;2022-11-20T12:45:35;100124.25;;;2.26;100.00
13968;BME280;39536;52.198;9.920;2022-11-20T12:48:50;100129.34;;;2.35;100.00
13968;BME280;39536;52.198;9.920;2022-11-20T12:51:30;100125.09;;;2.28;100.00
13968;BME280;39536;52.198;9.920;2022-11-20T12:54:11;100127.72;;;2.17;100.00
13968;BME280;39536;52.198;9.920;2022-11-20T12:56:50;100125.19;;;2.06;100.00
13968;BME280;39536;52.198;9.920;2022-11-20T12:59:34;100114.16;;;1.91;100.00
13968;BME280;39536;52.198;9.920;2022-11-20T13:02:21;100113.28;;;1.90;100.00
13968;BME280;39536;52.198;9.920;2022-11-20T13:05:10;100113.97;;;2.26;100.00